createdAt,value
2023-08-15T00:00:45.516Z,22.60
2023-08-15T00:03:12.977Z,22.60
2023-08-15T00:05:40.386Z,22.60
2023-08-15T00:08:07.701Z,22.60
2023-08-15T00:10:35.153Z,22.50
2023-08-15T00:13:04.305Z,22.50
2023-08-15T00:15:32.162Z,22.40
2023-08-15T00:18:00.266Z,22.40
2023-08-15T00:20:27.659Z,22.30
2023-08-15T00:22:55.009Z,22.30
2023-08-15T00:25:22.325Z,22.20
2023-08-15T00:27:49.604Z,22.20
2023-08-15T00:30:16.991Z,22.20
2023-08-15T00:32:44.512Z,22.20
2023-08-15T00:35:12.467Z,22.10
2023-08-15T00:37:39.996Z,22.10
2023-08-15T00:40:08.271Z,22.00
2023-08-15T00:42:35.599Z,22.00
2023-08-15T00:45:03.713Z,22.00
2023-08-15T00:47:31.576Z,22.00
2023-08-15T00:49:59.730Z,21.90
2023-08-15T00:52:27.677Z,21.90
2023-08-15T00:54:55.553Z,21.90
2023-08-15T00:57:23.680Z,21.80
2023-08-15T00:59:51.730Z,21.80
2023-08-15T01:02:19.851Z,21.80
2023-08-15T01:04:47.273Z,21.80
2023-08-15T01:07:14.670Z,21.80
2023-08-15T01:09:43.325Z,21.80
2023-08-15T01:12:44.272Z,21.70
2023-08-15T01:15:17.920Z,21.70
2023-08-15T01:17:56.361Z,21.70
2023-08-15T01:20:29.994Z,21.70
2023-08-15T01:23:02.173Z,21.70
2023-08-15T01:25:33.536Z,21.60
2023-08-15T01:28:01.079Z,21.50
2023-08-15T01:30:28.931Z,21.50
2023-08-15T01:33:08.063Z,21.50
2023-08-15T01:35:40.504Z,21.50
2023-08-15T01:38:32.115Z,21.50
2023-08-15T01:41:02.001Z,21.50
2023-08-15T01:43:30.171Z,21.50
2023-08-15T01:45:59.214Z,21.50
2023-08-15T01:48:26.505Z,21.50
2023-08-15T01:50:54.811Z,21.40
2023-08-15T01:53:22.175Z,21.40
2023-08-15T01:55:49.552Z,21.30
2023-08-15T01:58:16.910Z,21.30
2023-08-15T02:00:46.654Z,21.30
2023-08-15T02:03:13.996Z,21.30
2023-08-15T02:05:42.561Z,21.30
2023-08-15T02:08:09.891Z,21.30
2023-08-15T02:10:39.014Z,21.20
2023-08-15T02:13:07.314Z,21.20
2023-08-15T02:15:34.647Z,21.20
2023-08-15T02:18:02.068Z,21.10
2023-08-15T02:20:29.497Z,21.10
2023-08-15T02:22:57.644Z,21.10
2023-08-15T02:25:25.060Z,21.10
2023-08-15T02:27:53.163Z,21.10
2023-08-15T02:30:22.539Z,21.00
2023-08-15T02:32:49.983Z,21.00
2023-08-15T02:35:20.617Z,21.00
2023-08-15T02:37:47.880Z,20.90
2023-08-15T02:40:15.237Z,21.00
2023-08-15T02:42:42.478Z,21.00
2023-08-15T02:45:10.089Z,20.90
2023-08-15T02:47:37.443Z,20.90
2023-08-15T02:50:05.327Z,20.90
2023-08-15T02:52:32.592Z,20.90
2023-08-15T02:54:59.881Z,20.90
2023-08-15T02:57:27.261Z,20.80
2023-08-15T02:59:54.515Z,20.80
2023-08-15T03:02:21.938Z,20.80
2023-08-15T03:04:49.319Z,20.80
2023-08-15T03:07:16.776Z,20.80
2023-08-15T03:09:44.061Z,20.90
2023-08-15T03:12:11.512Z,20.90
2023-08-15T03:14:39.281Z,20.90
2023-08-15T03:17:08.585Z,21.00
2023-08-15T03:19:36.290Z,21.00
2023-08-15T03:22:03.633Z,21.00
2023-08-15T03:24:31.853Z,20.90
2023-08-15T03:27:01.025Z,21.00
2023-08-15T03:29:30.984Z,20.90
2023-08-15T03:32:00.194Z,20.90
2023-08-15T03:34:31.948Z,20.90
2023-08-15T03:36:59.200Z,20.80
2023-08-15T03:39:27.583Z,20.80
2023-08-15T03:41:54.879Z,20.80
2023-08-15T03:44:22.216Z,20.70
2023-08-15T03:46:49.682Z,20.70
2023-08-15T03:49:17.347Z,20.70
2023-08-15T03:51:47.672Z,20.70
2023-08-15T03:54:17.800Z,20.70
2023-08-15T03:56:46.243Z,20.80
2023-08-15T03:59:13.624Z,20.80
2023-08-15T04:01:42.025Z,20.80
2023-08-15T04:04:09.671Z,20.80
2023-08-15T04:06:37.185Z,20.70
2023-08-15T04:09:04.821Z,20.70
2023-08-15T04:11:32.220Z,20.70
2023-08-15T04:13:59.924Z,20.70
2023-08-15T04:16:27.880Z,20.70
2023-08-15T04:18:55.204Z,20.70
2023-08-15T04:21:23.725Z,20.80
2023-08-15T04:23:52.018Z,20.70
2023-08-15T04:26:19.246Z,20.70
2023-08-15T04:28:48.096Z,20.80
2023-08-15T04:31:15.480Z,20.80
2023-08-15T04:33:42.867Z,20.90
2023-08-15T04:36:10.537Z,20.90
2023-08-15T04:38:39.288Z,20.90
2023-08-15T04:41:08.074Z,20.90
2023-08-15T04:43:35.406Z,21.00
2023-08-15T04:46:02.855Z,21.00
2023-08-15T04:48:30.268Z,21.00
2023-08-15T04:50:57.559Z,21.10
2023-08-15T04:53:24.924Z,21.20
2023-08-15T04:55:52.290Z,21.20
2023-08-15T04:58:19.602Z,21.20
2023-08-15T05:00:46.889Z,21.30
2023-08-15T05:03:14.262Z,21.30
2023-08-15T05:05:41.622Z,21.40
2023-08-15T05:08:08.957Z,21.50
2023-08-15T05:10:36.788Z,21.60
2023-08-15T05:13:04.327Z,21.70
2023-08-15T05:15:32.040Z,21.80
2023-08-15T05:17:59.926Z,21.90
2023-08-15T05:20:27.709Z,21.90
2023-08-15T05:22:55.053Z,22.00
2023-08-15T05:25:22.677Z,22.00
2023-08-15T05:27:51.834Z,22.10
2023-08-15T05:30:19.553Z,22.10
2023-08-15T05:32:46.952Z,22.20
2023-08-15T05:35:14.386Z,22.30
2023-08-15T05:37:42.628Z,22.40
2023-08-15T05:40:11.610Z,22.50
2023-08-15T05:42:39.077Z,22.50
2023-08-15T05:45:06.942Z,22.60
2023-08-15T05:47:34.339Z,22.70
2023-08-15T05:50:01.861Z,22.80
2023-08-15T05:52:29.340Z,22.80
2023-08-15T05:54:56.961Z,22.90
2023-08-15T05:57:24.776Z,23.00
2023-08-15T05:59:52.135Z,23.10
2023-08-15T06:02:20.496Z,23.30
2023-08-15T06:04:47.770Z,23.40
2023-08-15T06:07:15.112Z,23.50
2023-08-15T06:09:42.424Z,23.40
2023-08-15T06:12:09.914Z,23.40
2023-08-15T06:14:40.083Z,23.30
2023-08-15T06:17:07.466Z,23.30
2023-08-15T06:19:34.806Z,23.50
2023-08-15T06:22:02.157Z,23.70
2023-08-15T06:24:29.444Z,23.80
2023-08-15T06:26:56.828Z,23.90
2023-08-15T06:29:24.394Z,24.10
2023-08-15T06:31:51.767Z,24.20
2023-08-15T06:34:19.264Z,24.50
2023-08-15T06:36:46.718Z,24.60
2023-08-15T06:39:14.013Z,24.70
2023-08-15T06:41:41.349Z,24.90
2023-08-15T06:44:09.388Z,25.00
2023-08-15T06:46:36.995Z,25.20
2023-08-15T06:49:04.472Z,25.30
2023-08-15T06:51:31.716Z,25.50
2023-08-15T06:53:59.082Z,25.60
2023-08-15T06:56:26.445Z,25.80
2023-08-15T06:58:53.692Z,25.90
2023-08-15T07:01:21.385Z,26.10
2023-08-15T07:03:48.796Z,26.20
2023-08-15T07:06:17.404Z,26.40
2023-08-15T07:08:45.615Z,26.40
2023-08-15T07:11:12.997Z,26.40
2023-08-15T07:13:40.433Z,26.20
2023-08-15T07:16:07.820Z,26.20
2023-08-15T07:18:35.133Z,26.10
2023-08-15T07:21:03.533Z,26.10
2023-08-15T07:23:32.152Z,26.00
2023-08-15T07:25:59.606Z,26.10
2023-08-15T07:28:26.975Z,26.20
2023-08-15T07:30:54.239Z,26.10
2023-08-15T07:33:21.466Z,26.10
2023-08-15T07:35:49.162Z,26.30
2023-08-15T07:38:16.540Z,26.40
2023-08-15T07:40:45.284Z,26.60
2023-08-15T07:43:12.650Z,26.70
2023-08-15T07:45:40.335Z,26.80
2023-08-15T07:48:07.743Z,27.00
2023-08-15T07:50:35.181Z,27.20
2023-08-15T07:53:02.447Z,27.40
2023-08-15T07:55:34.153Z,27.40
2023-08-15T07:58:02.069Z,27.50
2023-08-15T08:00:29.616Z,27.70
2023-08-15T08:02:58.180Z,27.80
2023-08-15T08:05:25.662Z,27.90
2023-08-15T08:07:53.038Z,28.00
2023-08-15T08:10:20.353Z,28.10
2023-08-15T08:12:48.022Z,28.20
2023-08-15T08:15:15.565Z,28.30
2023-08-15T08:17:43.136Z,28.30
2023-08-15T08:20:14.090Z,28.30
2023-08-15T08:22:41.574Z,28.30
2023-08-15T08:25:20.554Z,28.50
2023-08-15T08:27:49.009Z,28.80
2023-08-15T08:30:24.830Z,29.00
2023-08-15T08:32:53.897Z,29.10
2023-08-15T08:35:21.696Z,28.90
2023-08-15T08:37:49.062Z,28.90
2023-08-15T08:40:18.585Z,28.80
2023-08-15T08:42:47.106Z,29.00
2023-08-15T08:45:15.280Z,29.10
2023-08-15T08:47:45.228Z,29.10
2023-08-15T08:50:13.083Z,29.30
2023-08-15T08:52:42.528Z,29.20
2023-08-15T08:55:10.449Z,29.20
2023-08-15T08:57:38.438Z,29.30
2023-08-15T09:00:10.928Z,29.40
2023-08-15T09:02:38.753Z,29.50
2023-08-15T09:05:08.934Z,29.50
2023-08-15T09:07:37.004Z,29.50
2023-08-15T09:10:07.218Z,29.50
2023-08-15T09:12:36.384Z,29.60
2023-08-15T09:15:11.513Z,29.50
2023-08-15T09:17:39.646Z,29.50
2023-08-15T09:20:13.563Z,29.50
2023-08-15T09:22:45.433Z,29.30
2023-08-15T09:25:16.287Z,29.20
2023-08-15T09:27:44.857Z,29.10
2023-08-15T09:30:14.378Z,29.00
2023-08-15T09:32:43.785Z,28.90
2023-08-15T09:35:13.612Z,28.80
2023-08-15T09:37:49.230Z,28.80
2023-08-15T09:40:24.776Z,28.80
2023-08-15T09:42:55.663Z,28.90
2023-08-15T09:45:23.288Z,28.90
2023-08-15T09:47:50.870Z,29.00
2023-08-15T09:50:18.229Z,29.30
2023-08-15T09:52:51.873Z,29.20
2023-08-15T09:55:20.270Z,29.40
2023-08-15T09:57:47.903Z,29.40
2023-08-15T10:00:18.682Z,29.60
2023-08-15T10:02:56.760Z,29.90
2023-08-15T10:05:26.656Z,29.90
2023-08-15T10:07:54.446Z,30.40
2023-08-15T10:10:22.528Z,30.90
2023-08-15T10:12:51.226Z,31.20
2023-08-15T10:15:20.180Z,31.50
2023-08-15T10:17:48.143Z,31.60
2023-08-15T10:20:19.786Z,31.60
2023-08-15T10:22:51.917Z,31.70
2023-08-15T10:25:25.286Z,31.70
2023-08-15T10:27:55.415Z,32.20
2023-08-15T10:30:44.774Z,32.20
2023-08-15T10:33:20.452Z,32.40
2023-08-15T10:35:52.245Z,32.40
2023-08-15T10:38:23.628Z,32.80
2023-08-15T10:40:53.409Z,32.80
2023-08-15T10:43:26.029Z,33.00
2023-08-15T10:45:56.511Z,33.30
2023-08-15T10:48:55.757Z,33.90
2023-08-15T10:51:31.650Z,33.90
2023-08-15T10:54:01.180Z,34.00
2023-08-15T10:56:30.699Z,34.00
2023-08-15T10:58:59.277Z,34.60
2023-08-15T11:01:28.653Z,34.50
2023-08-15T11:03:58.021Z,34.60
2023-08-15T11:06:26.055Z,34.20
2023-08-15T11:08:56.355Z,34.40
2023-08-15T11:11:24.103Z,34.30
2023-08-15T11:13:53.721Z,34.30
2023-08-15T11:16:24.026Z,34.60
2023-08-15T11:18:51.804Z,34.10
2023-08-15T11:21:19.633Z,34.10
2023-08-15T11:23:49.422Z,33.10
2023-08-15T11:26:18.096Z,32.80
2023-08-15T11:28:45.767Z,32.60
2023-08-15T11:31:22.387Z,32.40
2023-08-15T11:33:52.869Z,32.50
2023-08-15T11:36:22.162Z,32.80
2023-08-15T11:38:49.513Z,32.80
2023-08-15T11:41:17.399Z,32.70
2023-08-15T11:43:46.578Z,32.80
2023-08-15T11:46:14.074Z,33.00
2023-08-15T11:48:47.912Z,33.10
2023-08-15T11:51:24.553Z,33.10
2023-08-15T11:53:55.916Z,33.20
2023-08-15T11:56:23.506Z,33.00
2023-08-15T11:58:50.809Z,33.60
2023-08-15T12:01:18.176Z,34.00
2023-08-15T12:03:45.752Z,33.80
2023-08-15T12:06:15.373Z,34.40
2023-08-15T12:08:46.272Z,34.90
2023-08-15T12:11:13.991Z,34.60
2023-08-15T12:13:42.492Z,34.40
2023-08-15T12:16:11.107Z,34.00
2023-08-15T12:18:40.655Z,34.10
2023-08-15T12:21:10.902Z,34.40
2023-08-15T12:23:40.516Z,34.40
2023-08-15T12:26:07.829Z,35.00
2023-08-15T12:28:35.323Z,35.50
2023-08-15T12:31:02.756Z,35.10
2023-08-15T12:33:42.033Z,35.00
2023-08-15T12:36:14.402Z,35.10
2023-08-15T12:38:41.683Z,35.70
2023-08-15T12:41:10.284Z,35.40
2023-08-15T12:43:38.105Z,35.70
2023-08-15T12:46:05.474Z,35.70
2023-08-15T12:48:32.852Z,35.90
2023-08-15T12:51:00.999Z,36.20
2023-08-15T12:53:28.370Z,36.20
2023-08-15T12:55:55.906Z,35.70
2023-08-15T12:58:23.493Z,35.40
2023-08-15T13:00:52.278Z,35.10
2023-08-15T13:03:20.170Z,35.30
2023-08-15T13:05:48.834Z,35.00
2023-08-15T13:08:17.299Z,35.00
2023-08-15T13:10:44.952Z,35.10
2023-08-15T13:13:12.396Z,34.90
2023-08-15T13:15:39.874Z,34.30
2023-08-15T13:18:07.316Z,34.30
2023-08-15T13:20:34.867Z,35.00
2023-08-15T13:23:02.369Z,35.60
2023-08-15T13:25:30.614Z,35.50
2023-08-15T13:27:58.264Z,35.40
2023-08-15T13:30:25.694Z,35.80
2023-08-15T13:32:53.132Z,36.60
2023-08-15T13:35:20.710Z,37.50
2023-08-15T13:37:48.032Z,37.10
2023-08-15T13:40:15.624Z,37.80
2023-08-15T13:42:43.457Z,38.20
2023-08-15T13:45:11.320Z,38.60
2023-08-15T13:47:39.504Z,39.20
2023-08-15T13:50:08.093Z,39.50
2023-08-15T13:52:37.772Z,39.90
2023-08-15T13:55:06.433Z,40.30
2023-08-15T13:57:34.191Z,41.30
2023-08-15T14:00:05.172Z,42.10
2023-08-15T14:02:36.525Z,41.20
2023-08-15T14:05:05.584Z,39.20
2023-08-15T14:07:34.075Z,37.30
2023-08-15T14:10:01.623Z,36.40
2023-08-15T14:12:29.192Z,35.70
2023-08-15T14:14:57.216Z,35.00
2023-08-15T14:17:24.630Z,34.10
2023-08-15T14:19:51.946Z,33.60
2023-08-15T14:22:19.318Z,33.60
2023-08-15T14:24:50.025Z,33.20
2023-08-15T14:27:19.756Z,33.00
2023-08-15T14:29:50.295Z,33.00
2023-08-15T14:32:18.354Z,33.70
2023-08-15T14:34:45.700Z,34.10
2023-08-15T14:37:13.077Z,33.80
2023-08-15T14:39:40.429Z,33.50
2023-08-15T14:42:07.787Z,34.20
2023-08-15T14:44:35.732Z,36.10
2023-08-15T14:47:03.076Z,36.10
2023-08-15T14:49:30.382Z,36.30
2023-08-15T14:51:57.645Z,36.60
2023-08-15T14:54:25.009Z,35.80
2023-08-15T14:56:52.372Z,35.80
2023-08-15T14:59:19.659Z,35.30
2023-08-15T15:01:46.978Z,35.00
2023-08-15T15:04:14.250Z,34.50
2023-08-15T15:06:41.867Z,34.00
2023-08-15T15:09:09.124Z,34.30
2023-08-15T15:11:36.471Z,35.00
2023-08-15T15:14:03.818Z,35.00
2023-08-15T15:16:31.231Z,35.20
2023-08-15T15:18:58.678Z,35.80
2023-08-15T15:21:26.026Z,36.40
2023-08-15T15:23:53.436Z,36.50
2023-08-15T15:26:22.462Z,37.00
2023-08-15T15:28:50.809Z,37.90
2023-08-15T15:31:18.114Z,37.80
2023-08-15T15:33:45.465Z,37.70
2023-08-15T15:36:12.729Z,36.90
2023-08-15T15:38:40.262Z,36.10
2023-08-15T15:41:07.534Z,37.10
2023-08-15T15:43:34.853Z,37.50
2023-08-15T15:46:02.235Z,38.20
2023-08-15T15:48:29.650Z,39.70
2023-08-15T15:50:56.955Z,41.50
2023-08-15T15:53:24.341Z,42.90
2023-08-15T15:55:51.747Z,43.20
2023-08-15T15:58:19.227Z,43.70
2023-08-15T16:00:46.568Z,44.20
2023-08-15T16:03:14.420Z,44.00
2023-08-15T16:05:41.773Z,43.00
2023-08-15T16:08:09.090Z,43.50
2023-08-15T16:10:36.442Z,43.50
2023-08-15T16:13:03.793Z,42.10
2023-08-15T16:15:31.140Z,42.30
2023-08-15T16:17:58.539Z,42.80
2023-08-15T16:20:26.087Z,41.40
2023-08-15T16:22:53.717Z,39.80
2023-08-15T16:25:21.105Z,39.60
2023-08-15T16:27:48.349Z,39.40
2023-08-15T16:30:18.448Z,38.90
2023-08-15T16:32:49.553Z,37.80
2023-08-15T16:35:17.021Z,36.90
2023-08-15T16:37:46.508Z,35.80
2023-08-15T16:40:14.209Z,35.20
2023-08-15T16:42:41.703Z,34.60
2023-08-15T16:45:09.642Z,34.20
2023-08-15T16:47:37.033Z,34.30
2023-08-15T16:50:04.615Z,34.30
2023-08-15T16:52:32.060Z,34.40
2023-08-15T16:54:59.357Z,34.30
2023-08-15T16:57:26.809Z,34.00
2023-08-15T16:59:54.125Z,33.70
2023-08-15T17:02:21.671Z,33.40
2023-08-15T17:04:49.416Z,32.80
2023-08-15T17:07:16.782Z,32.50
2023-08-15T17:09:44.103Z,32.30
2023-08-15T17:12:11.428Z,32.30
2023-08-15T17:14:38.804Z,33.20
2023-08-15T17:17:06.100Z,33.30
2023-08-15T17:19:33.398Z,32.90
2023-08-15T17:22:00.692Z,32.70
2023-08-15T17:24:27.988Z,32.30
2023-08-15T17:26:55.240Z,32.20
2023-08-15T17:29:22.574Z,32.90
2023-08-15T17:31:50.936Z,33.60
2023-08-15T17:34:18.315Z,33.70
2023-08-15T17:36:45.708Z,33.80
2023-08-15T17:39:13.524Z,34.00
2023-08-15T17:41:41.500Z,33.80
2023-08-15T17:44:09.604Z,33.20
2023-08-15T17:46:37.131Z,32.60
2023-08-15T17:49:04.566Z,32.20
2023-08-15T17:51:31.845Z,31.60
2023-08-15T17:53:59.118Z,31.20
2023-08-15T17:56:26.456Z,30.90
2023-08-15T17:58:54.712Z,30.80
2023-08-15T18:01:22.115Z,30.70
2023-08-15T18:03:49.520Z,30.60
2023-08-15T18:06:17.601Z,30.50
2023-08-15T18:08:45.289Z,30.20
2023-08-15T18:11:12.703Z,30.00
2023-08-15T18:13:40.174Z,29.90
2023-08-15T18:16:09.051Z,29.70
2023-08-15T18:18:36.464Z,29.40
2023-08-15T18:21:03.944Z,29.30
2023-08-15T18:23:31.337Z,29.10
2023-08-15T18:25:58.782Z,28.90
2023-08-15T18:28:26.162Z,28.70
2023-08-15T18:30:53.743Z,28.60
2023-08-15T18:33:22.504Z,28.50
2023-08-15T18:35:54.651Z,28.30
2023-08-15T18:38:22.209Z,28.20
2023-08-15T18:40:49.505Z,28.00
2023-08-15T18:43:16.823Z,27.90
2023-08-15T18:45:45.533Z,27.80
2023-08-15T18:48:13.929Z,27.80
2023-08-15T18:50:41.884Z,27.60
2023-08-15T18:53:09.220Z,27.60
2023-08-15T18:55:36.636Z,27.50
2023-08-15T18:58:04.118Z,27.50
2023-08-15T19:00:31.518Z,27.40
2023-08-15T19:02:59.120Z,27.40
2023-08-15T19:05:26.476Z,27.30
2023-08-15T19:07:53.899Z,27.30
2023-08-15T19:10:22.050Z,27.20
2023-08-15T19:12:49.387Z,27.20
2023-08-15T19:15:18.587Z,27.10
2023-08-15T19:17:49.919Z,27.10
2023-08-15T19:20:19.786Z,27.00
2023-08-15T19:22:47.159Z,26.90
2023-08-15T19:25:14.921Z,26.90
2023-08-15T19:27:43.216Z,26.90
2023-08-15T19:30:11.007Z,26.80
2023-08-15T19:32:38.410Z,26.80
2023-08-15T19:35:06.279Z,26.70
2023-08-15T19:37:37.837Z,26.70
2023-08-15T19:40:10.138Z,26.60
2023-08-15T19:42:45.392Z,26.70
2023-08-15T19:45:14.321Z,26.60
2023-08-15T19:47:42.387Z,26.60
2023-08-15T19:50:10.468Z,26.60
2023-08-15T19:52:38.105Z,26.60
2023-08-15T19:55:05.677Z,26.50
2023-08-15T19:57:33.698Z,26.50
2023-08-15T20:00:01.764Z,26.50
2023-08-15T20:02:30.040Z,26.40
2023-08-15T20:04:57.479Z,26.40
2023-08-15T20:07:24.971Z,26.30
2023-08-15T20:10:08.242Z,26.30
2023-08-15T20:12:38.844Z,26.20
2023-08-15T20:15:06.641Z,26.10
2023-08-15T20:17:34.280Z,26.00
2023-08-15T20:20:01.793Z,25.90
2023-08-15T20:22:29.095Z,25.90
2023-08-15T20:24:57.821Z,25.80
2023-08-15T20:27:25.308Z,25.70
2023-08-15T20:29:57.663Z,25.70
2023-08-15T20:32:26.772Z,25.60
2023-08-15T20:34:54.595Z,25.50
2023-08-15T20:37:21.973Z,25.50
2023-08-15T20:39:49.350Z,25.50
2023-08-15T20:42:16.681Z,25.40
2023-08-15T20:44:43.977Z,25.30
2023-08-15T20:47:11.315Z,25.20
2023-08-15T20:49:40.308Z,25.10
2023-08-15T20:52:07.792Z,25.10
2023-08-15T20:54:35.110Z,25.10
2023-08-15T20:57:02.751Z,25.10
2023-08-15T20:59:30.005Z,24.90
2023-08-15T21:01:57.462Z,24.90
2023-08-15T21:04:25.439Z,24.80
2023-08-15T21:06:53.565Z,24.80
2023-08-15T21:09:21.164Z,24.70
2023-08-15T21:11:48.554Z,24.70
2023-08-15T21:14:15.999Z,24.70
2023-08-15T21:16:43.795Z,24.60
2023-08-15T21:19:11.132Z,24.60
2023-08-15T21:21:38.481Z,24.50
2023-08-15T21:24:06.344Z,24.50
2023-08-15T21:26:33.652Z,24.50
2023-08-15T21:29:01.001Z,24.40
2023-08-15T21:31:29.757Z,24.40
2023-08-15T21:33:57.127Z,24.40
2023-08-15T21:36:24.416Z,24.40
2023-08-15T21:38:51.764Z,24.40
2023-08-15T21:41:19.136Z,24.40
2023-08-15T21:43:46.446Z,24.40
2023-08-15T21:46:13.865Z,24.30
2023-08-15T21:48:41.274Z,24.30
2023-08-15T21:51:08.606Z,24.30
2023-08-15T21:53:36.682Z,24.30
2023-08-15T21:56:04.160Z,24.30
2023-08-15T21:58:31.560Z,24.30
2023-08-15T22:00:58.802Z,24.20
2023-08-15T22:03:26.126Z,24.20
2023-08-15T22:05:53.498Z,24.20
2023-08-15T22:08:20.924Z,24.20
2023-08-15T22:10:48.141Z,24.20
2023-08-15T22:13:15.523Z,24.20
2023-08-15T22:15:45.752Z,24.20
2023-08-15T22:18:20.405Z,24.10
2023-08-15T22:20:49.653Z,24.10
2023-08-15T22:23:16.984Z,24.00
2023-08-15T22:25:48.401Z,24.00
2023-08-15T22:28:16.477Z,23.90
2023-08-15T22:30:44.821Z,23.80
2023-08-15T22:33:12.081Z,23.80
2023-08-15T22:35:41.385Z,23.70
2023-08-15T22:38:09.196Z,23.70
2023-08-15T22:40:36.853Z,23.70
2023-08-15T22:43:05.564Z,23.60
2023-08-15T22:45:32.857Z,23.60
2023-08-15T22:48:00.341Z,23.50
2023-08-15T22:50:27.690Z,23.50
2023-08-15T22:52:58.423Z,23.40
2023-08-15T22:55:25.888Z,23.40
2023-08-15T22:57:53.190Z,23.30
2023-08-15T23:00:20.514Z,23.30
2023-08-15T23:02:48.003Z,23.30
2023-08-15T23:05:15.568Z,23.30
2023-08-15T23:07:42.994Z,23.30
2023-08-15T23:10:10.656Z,23.20
2023-08-15T23:12:37.979Z,23.20
2023-08-15T23:15:06.285Z,23.20
2023-08-15T23:17:33.639Z,23.20
2023-08-15T23:20:01.182Z,23.10
2023-08-15T23:22:28.521Z,23.20
2023-08-15T23:24:56.043Z,23.10
2023-08-15T23:27:23.558Z,23.00
2023-08-15T23:29:51.096Z,23.00
2023-08-15T23:32:18.722Z,23.00
2023-08-15T23:34:46.025Z,22.90
2023-08-15T23:37:13.303Z,22.90
2023-08-15T23:39:40.549Z,22.90
2023-08-15T23:42:08.666Z,22.80
2023-08-15T23:44:36.016Z,22.80
2023-08-15T23:47:03.485Z,22.70
2023-08-15T23:49:30.798Z,22.70
2023-08-15T23:51:58.067Z,22.70
2023-08-15T23:54:25.720Z,22.60
2023-08-15T23:56:53.065Z,22.60
2023-08-15T23:59:20.700Z,22.60
